Port Burwell, Canada
Current Conditions -  °F | °C
As of 4:00 AM on Monday 20 Oct 2014 (Local Time) from CYXU Reporting Station
Broken Clouds Broken Clouds  
Wind Chill: 40°   Ceiling: 11000
Heat Index: 45°   Visibility: 15mi
Dew Point: 37°   Wind: 9mph
Humidity: 76%   Direction: 200°SSW
Pressure: 29.92"   Gusts: NA
Location:  42.65°N, 80.82°W
Report Text: CYXU 200800Z 20008KT 15SM BKN110 07/03 A2992 RMK AC6 SLP136
Loading
Personal Weather Stations






























Interactive Weather Map
Tropical Storm Tracking
New forecast layout! Learn more

10-Day Weather Forecast

Advertisements
Track Severe Weather on mobile